createdAt,value
2023-01-30T00:01:38.671Z,-0.60
2023-01-30T00:04:05.823Z,-0.60
2023-01-30T00:06:32.915Z,-0.60
2023-01-30T00:08:59.772Z,-0.60
2023-01-30T00:11:28.737Z,-0.60
2023-01-30T00:13:55.785Z,-0.50
2023-01-30T00:16:22.737Z,-0.50
2023-01-30T00:18:49.562Z,-0.60
2023-01-30T00:21:16.262Z,-0.70
2023-01-30T00:23:43.419Z,-0.70
2023-01-30T00:26:10.369Z,-0.70
2023-01-30T00:28:39.515Z,-0.60
2023-01-30T00:31:06.766Z,-0.70
2023-01-30T00:33:33.535Z,-0.50
2023-01-30T00:36:01.514Z,-0.50
2023-01-30T00:38:28.272Z,-0.50
2023-01-30T00:40:55.050Z,-0.60
2023-01-30T00:43:40.503Z,-0.60
2023-01-30T00:46:51.796Z,-0.50
2023-01-30T00:49:19.707Z,-0.50
2023-01-30T00:51:46.497Z,-0.50
2023-01-30T00:54:13.310Z,-0.50
2023-01-30T00:56:40.145Z,-0.50
2023-01-30T00:59:06.996Z,-0.60
2023-01-30T01:01:33.741Z,-0.50
2023-01-30T01:04:01.640Z,-0.50
2023-01-30T01:06:28.398Z,-0.40
2023-01-30T01:08:55.208Z,-0.30
2023-01-30T01:11:25.065Z,-0.10
2023-01-30T01:13:52.940Z,-0.10
2023-01-30T01:16:20.291Z,-0.10
2023-01-30T01:18:47.493Z,0.10
2023-01-30T01:21:14.451Z,0.10
2023-01-30T01:23:41.311Z,0.00
2023-01-30T01:26:08.344Z,0.10
2023-01-30T01:28:35.248Z,0.10
2023-01-30T01:31:07.608Z,0.10
2023-01-30T01:33:34.403Z,0.20
2023-01-30T01:36:03.630Z,0.20
2023-01-30T01:38:31.582Z,0.20
2023-01-30T01:41:01.881Z,0.30
2023-01-30T01:43:33.179Z,0.30
2023-01-30T01:46:09.084Z,0.30
2023-01-30T01:48:41.632Z,0.30
2023-01-30T01:51:31.801Z,0.30
2023-01-30T01:54:02.938Z,0.30
2023-01-30T01:56:31.089Z,0.30
2023-01-30T01:59:01.650Z,0.40
2023-01-30T02:01:28.855Z,0.30
2023-01-30T02:03:58.751Z,0.40
2023-01-30T02:06:25.671Z,0.40
2023-01-30T02:08:58.328Z,0.30
2023-01-30T02:11:28.263Z,0.30
2023-01-30T02:13:55.948Z,0.30
2023-01-30T02:16:23.752Z,0.30
2023-01-30T02:18:50.738Z,0.30
2023-01-30T02:21:36.310Z,0.20
2023-01-30T02:24:16.565Z,0.20
2023-01-30T02:26:55.784Z,0.30
2023-01-30T02:29:25.725Z,0.20
2023-01-30T02:31:57.467Z,0.20
2023-01-30T02:34:30.315Z,0.20
2023-01-30T02:37:10.146Z,0.20
2023-01-30T02:39:56.429Z,-0.20
2023-01-30T02:42:41.862Z,0.20
2023-01-30T02:45:20.996Z,0.20
2023-01-30T02:47:56.957Z,0.30
2023-01-30T02:50:29.168Z,0.30
2023-01-30T02:52:57.794Z,0.20
2023-01-30T02:55:26.713Z,0.30
2023-01-30T02:57:53.670Z,0.30
2023-01-30T03:00:32.323Z,0.30
2023-01-30T03:03:10.689Z,0.30
2023-01-30T03:05:45.087Z,0.30
2023-01-30T03:08:34.622Z,0.30
2023-01-30T03:11:03.426Z,0.30
2023-01-30T03:13:33.657Z,0.30
2023-01-30T03:16:07.422Z,0.20
2023-01-30T03:18:34.257Z,0.20
2023-01-30T03:21:05.634Z,0.20
2023-01-30T03:23:32.891Z,0.20
2023-01-30T03:26:00.042Z,0.20
2023-01-30T03:28:27.252Z,0.20
2023-01-30T03:30:54.086Z,0.20
2023-01-30T03:33:20.977Z,0.30
2023-01-30T03:35:49.431Z,0.20
2023-01-30T03:38:16.340Z,0.30
2023-01-30T03:40:43.268Z,0.30
2023-01-30T03:43:10.121Z,0.30
2023-01-30T03:45:37.674Z,0.40
2023-01-30T03:48:05.239Z,0.30
2023-01-30T03:50:32.652Z,0.30
2023-01-30T03:53:00.659Z,0.20
2023-01-30T03:55:27.466Z,0.20
2023-01-30T03:57:55.155Z,0.00
2023-01-30T04:00:22.015Z,0.10
2023-01-30T04:02:50.929Z,0.00
2023-01-30T04:05:18.778Z,0.00
2023-01-30T04:07:52.278Z,0.00
2023-01-30T04:10:20.070Z,0.00
2023-01-30T04:12:47.446Z,0.00
2023-01-30T04:15:14.395Z,-0.10
2023-01-30T04:18:04.466Z,-0.10
2023-01-30T04:20:46.131Z,-0.10
2023-01-30T04:23:15.153Z,-0.10
2023-01-30T04:25:41.882Z,-0.10
2023-01-30T04:28:09.757Z,-0.10
2023-01-30T04:30:38.440Z,-0.20
2023-01-30T04:33:25.691Z,-0.10
2023-01-30T04:35:57.375Z,-0.20
2023-01-30T04:38:25.066Z,-0.20
2023-01-30T04:40:53.637Z,-0.10
2023-01-30T04:43:22.013Z,-0.20
2023-01-30T04:45:51.831Z,-0.10
2023-01-30T04:48:19.719Z,-0.20
2023-01-30T04:50:50.854Z,-0.10
2023-01-30T04:53:18.048Z,0.00
2023-01-30T04:55:45.198Z,-0.20
2023-01-30T04:58:12.111Z,-0.20
2023-01-30T05:00:39.254Z,-0.10
2023-01-30T05:03:07.118Z,-0.20
2023-01-30T05:05:34.354Z,-0.20
2023-01-30T05:08:01.679Z,-0.20
2023-01-30T05:10:28.545Z,-0.20
2023-01-30T05:12:55.293Z,-0.20
2023-01-30T05:15:22.051Z,-0.20
2023-01-30T05:17:48.863Z,-0.20
2023-01-30T05:20:15.734Z,-0.20
2023-01-30T05:22:42.458Z,-0.20
2023-01-30T05:25:09.606Z,-0.20
2023-01-30T05:27:36.338Z,-0.20
2023-01-30T05:30:03.384Z,-0.20
2023-01-30T05:32:31.100Z,-0.20
2023-01-30T05:34:57.917Z,-0.10
2023-01-30T05:37:24.844Z,0.00
2023-01-30T05:39:51.665Z,0.00
2023-01-30T05:42:18.439Z,0.00
2023-01-30T05:44:46.016Z,0.00
2023-01-30T05:47:12.823Z,0.10
2023-01-30T05:49:39.594Z,0.10
2023-01-30T05:52:06.453Z,0.10
2023-01-30T05:54:34.145Z,0.10
2023-01-30T05:57:00.892Z,0.10
2023-01-30T05:59:27.670Z,0.10
2023-01-30T06:01:54.425Z,0.10
2023-01-30T06:04:21.379Z,0.10
2023-01-30T06:06:49.180Z,0.10
2023-01-30T06:09:15.917Z,0.10
2023-01-30T06:11:42.617Z,0.20
2023-01-30T06:14:09.426Z,0.10
2023-01-30T06:16:36.205Z,0.10
2023-01-30T06:19:03.000Z,0.20
2023-01-30T06:21:29.722Z,0.20
2023-01-30T06:23:56.406Z,0.20
2023-01-30T06:26:23.174Z,0.20
2023-01-30T06:28:50.015Z,0.20
2023-01-30T06:31:18.421Z,0.20
2023-01-30T06:33:45.351Z,0.20
2023-01-30T06:36:12.083Z,0.20
2023-01-30T06:38:38.859Z,0.20
2023-01-30T06:41:05.796Z,0.20
2023-01-30T06:43:32.552Z,0.30
2023-01-30T06:45:59.761Z,0.40
2023-01-30T06:48:26.979Z,0.30
2023-01-30T06:50:53.817Z,0.30
2023-01-30T06:53:20.892Z,0.30
2023-01-30T06:55:47.573Z,0.30
2023-01-30T06:58:14.923Z,0.40
2023-01-30T07:00:42.467Z,0.30
2023-01-30T07:03:12.966Z,0.30
2023-01-30T07:05:40.104Z,0.30
2023-01-30T07:08:06.931Z,0.30
2023-01-30T07:10:33.758Z,0.40
2023-01-30T07:13:00.631Z,0.40
2023-01-30T07:15:27.945Z,0.40
2023-01-30T07:17:54.628Z,0.50
2023-01-30T07:20:21.509Z,0.50
2023-01-30T07:22:51.946Z,0.50
2023-01-30T07:25:19.808Z,0.50
2023-01-30T07:28:04.992Z,0.50
2023-01-30T07:30:32.791Z,0.60
2023-01-30T07:33:00.145Z,0.60
2023-01-30T07:35:28.124Z,0.60
2023-01-30T07:37:54.950Z,0.60
2023-01-30T07:40:22.182Z,0.60
2023-01-30T07:43:08.741Z,0.60
2023-01-30T07:46:02.776Z,0.60
2023-01-30T07:48:29.590Z,0.60
2023-01-30T07:50:57.112Z,0.70
2023-01-30T07:53:23.978Z,0.70
2023-01-30T07:55:50.662Z,0.70
2023-01-30T07:58:17.439Z,0.80
2023-01-30T08:00:44.697Z,0.80
2023-01-30T08:03:12.869Z,0.80
2023-01-30T08:05:39.562Z,0.80
2023-01-30T08:08:06.319Z,0.90
2023-01-30T08:10:33.039Z,0.80
2023-01-30T08:12:59.791Z,0.80
2023-01-30T08:15:26.610Z,0.80
2023-01-30T08:17:55.004Z,0.80
2023-01-30T08:20:22.089Z,0.70
2023-01-30T08:22:48.879Z,0.80
2023-01-30T08:25:15.792Z,0.80
2023-01-30T08:27:42.589Z,0.80
2023-01-30T08:30:10.536Z,0.80
2023-01-30T08:32:37.326Z,0.90
2023-01-30T08:35:04.118Z,0.90
2023-01-30T08:37:30.881Z,0.90
2023-01-30T08:39:57.766Z,0.90
2023-01-30T08:42:24.533Z,0.90
2023-01-30T08:44:51.478Z,0.90
2023-01-30T08:47:18.270Z,0.90
2023-01-30T08:49:45.022Z,0.80
2023-01-30T08:52:11.797Z,0.90
2023-01-30T08:54:38.539Z,1.00
2023-01-30T08:57:05.287Z,1.00
2023-01-30T08:59:32.034Z,1.10
2023-01-30T09:01:58.781Z,1.10
2023-01-30T09:04:26.504Z,1.00
2023-01-30T09:06:53.281Z,1.00
2023-01-30T09:09:19.987Z,1.10
2023-01-30T09:11:48.174Z,1.10
2023-01-30T09:14:19.854Z,1.00
2023-01-30T09:16:47.236Z,1.00
2023-01-30T09:19:14.392Z,1.00
2023-01-30T09:21:41.211Z,1.10
2023-01-30T09:24:08.030Z,1.10
2023-01-30T09:26:35.130Z,1.10
2023-01-30T09:29:01.902Z,1.10
2023-01-30T09:31:28.735Z,1.20
2023-01-30T09:33:55.547Z,1.20
2023-01-30T09:36:22.405Z,1.30
2023-01-30T09:38:49.213Z,1.30
2023-01-30T09:41:28.169Z,1.30
2023-01-30T09:43:57.726Z,1.30
2023-01-30T09:46:43.390Z,1.40
2023-01-30T09:49:19.496Z,1.40
2023-01-30T09:51:55.954Z,1.40
2023-01-30T09:54:26.378Z,1.50
2023-01-30T09:57:20.544Z,1.50
2023-01-30T09:59:52.861Z,1.50
2023-01-30T10:02:28.503Z,1.50
2023-01-30T10:05:01.698Z,1.50
2023-01-30T10:07:36.736Z,1.40
2023-01-30T10:10:10.237Z,1.40
2023-01-30T10:12:42.883Z,1.30
2023-01-30T10:15:14.705Z,1.30
2023-01-30T10:18:00.183Z,1.40
2023-01-30T10:20:35.085Z,1.30
2023-01-30T10:23:08.054Z,1.30
2023-01-30T10:25:41.334Z,1.30
2023-01-30T10:28:13.842Z,1.40
2023-01-30T10:30:40.828Z,1.30
2023-01-30T10:33:15.354Z,1.30
2023-01-30T10:35:42.908Z,1.40
2023-01-30T10:38:26.157Z,1.50
2023-01-30T10:41:05.005Z,1.40
2023-01-30T10:43:34.394Z,1.40
2023-01-30T10:46:07.213Z,1.40
2023-01-30T10:48:53.064Z,1.40
2023-01-30T10:51:29.098Z,1.40
2023-01-30T10:54:02.702Z,1.40
2023-01-30T10:56:48.186Z,1.50
2023-01-30T10:59:28.242Z,1.50
2023-01-30T11:01:55.161Z,1.50
2023-01-30T11:04:27.938Z,1.50
2023-01-30T11:06:55.727Z,1.50
2023-01-30T11:09:24.635Z,1.60
2023-01-30T11:11:52.577Z,1.60
2023-01-30T11:14:19.576Z,1.60
2023-01-30T11:16:47.311Z,1.60
2023-01-30T11:19:20.588Z,1.60
2023-01-30T11:21:51.500Z,1.60
2023-01-30T11:24:23.776Z,1.60
2023-01-30T11:26:52.361Z,1.60
2023-01-30T11:29:25.257Z,1.60
2023-01-30T11:31:52.821Z,1.60
2023-01-30T11:34:20.717Z,1.60
2023-01-30T11:36:47.795Z,1.60
2023-01-30T11:39:15.814Z,1.70
2023-01-30T11:41:43.423Z,1.70
2023-01-30T11:44:10.426Z,1.70
2023-01-30T11:46:38.638Z,1.70
2023-01-30T11:49:46.051Z,1.70
2023-01-30T11:51:59.648Z,1.90
2023-01-30T11:54:38.035Z,1.90
2023-01-30T11:57:06.233Z,2.00
2023-01-30T11:59:37.489Z,2.00
2023-01-30T12:02:24.698Z,1.90
2023-01-30T12:04:55.568Z,1.90
2023-01-30T12:07:23.917Z,2.00
2023-01-30T12:09:51.706Z,2.00
2023-01-30T12:12:27.765Z,2.00
2023-01-30T12:14:58.005Z,2.00
2023-01-30T12:17:35.069Z,2.10
2023-01-30T12:20:05.624Z,2.00
2023-01-30T12:22:38.796Z,2.00
2023-01-30T12:25:19.226Z,2.00
2023-01-30T12:27:46.127Z,1.90
2023-01-30T12:30:21.229Z,2.10
2023-01-30T12:32:48.572Z,1.90
2023-01-30T12:35:17.612Z,2.00
2023-01-30T12:37:50.645Z,2.00
2023-01-30T12:40:29.410Z,2.10
2023-01-30T12:43:15.252Z,2.00
2023-01-30T12:45:55.218Z,2.00
2023-01-30T12:48:31.255Z,2.00
2023-01-30T12:51:01.038Z,2.00
2023-01-30T12:53:51.096Z,2.00
2023-01-30T12:56:17.807Z,2.00
2023-01-30T12:58:45.744Z,2.10
2023-01-30T13:01:15.713Z,2.10
2023-01-30T13:03:49.988Z,2.10
2023-01-30T13:06:28.366Z,2.10
2023-01-30T13:09:04.600Z,2.10
2023-01-30T13:11:42.456Z,2.10
2023-01-30T13:14:12.814Z,2.10
2023-01-30T13:16:51.678Z,2.20
2023-01-30T13:19:20.951Z,2.20
2023-01-30T13:22:04.106Z,2.20
2023-01-30T13:24:49.757Z,2.20
2023-01-30T13:27:19.009Z,2.20
2023-01-30T13:29:47.186Z,2.20
2023-01-30T13:32:32.503Z,2.10
2023-01-30T13:34:59.508Z,2.10
2023-01-30T13:37:27.255Z,2.10
2023-01-30T13:39:59.458Z,2.10
2023-01-30T13:42:41.459Z,2.10
2023-01-30T13:45:34.895Z,2.10
2023-01-30T13:48:04.893Z,2.20
2023-01-30T13:50:45.732Z,2.20
2023-01-30T13:53:27.892Z,2.20
2023-01-30T13:55:54.640Z,2.10
2023-01-30T13:58:25.124Z,2.20
2023-01-30T14:00:53.377Z,2.20
2023-01-30T14:03:23.150Z,2.20
2023-01-30T14:06:00.739Z,2.20
2023-01-30T14:08:34.073Z,2.20
2023-01-30T14:11:01.383Z,2.20
2023-01-30T14:13:29.735Z,2.30
2023-01-30T14:15:59.141Z,2.40
2023-01-30T14:18:31.381Z,2.40
2023-01-30T14:21:20.345Z,2.40
2023-01-30T14:23:57.367Z,2.40
2023-01-30T14:26:42.919Z,2.30
2023-01-30T14:29:10.332Z,2.40
2023-01-30T14:31:48.479Z,2.30
2023-01-30T14:34:36.410Z,2.30
2023-01-30T14:37:05.149Z,2.40
2023-01-30T14:39:39.362Z,2.50
2023-01-30T14:42:32.775Z,2.50
2023-01-30T14:45:04.818Z,2.50
2023-01-30T14:47:34.555Z,2.60
2023-01-30T14:50:22.266Z,2.60
2023-01-30T14:52:50.403Z,2.60
2023-01-30T14:55:21.834Z,2.70
2023-01-30T14:57:56.511Z,2.70
2023-01-30T15:00:25.940Z,2.60
2023-01-30T15:02:54.933Z,2.60
2023-01-30T15:05:27.969Z,2.60
2023-01-30T15:08:01.924Z,2.70
2023-01-30T15:10:28.730Z,2.60
2023-01-30T15:13:05.407Z,2.70
2023-01-30T15:15:32.221Z,2.70
2023-01-30T15:18:07.945Z,2.70
2023-01-30T15:21:01.099Z,2.60
2023-01-30T15:23:51.123Z,2.70
2023-01-30T15:26:40.297Z,2.60
2023-01-30T15:29:25.788Z,2.70
2023-01-30T15:32:00.116Z,2.70
2023-01-30T15:34:30.991Z,2.70
2023-01-30T15:36:58.062Z,2.70
2023-01-30T15:39:26.131Z,2.80
2023-01-30T15:41:53.646Z,2.70
2023-01-30T15:44:26.830Z,2.70
2023-01-30T15:46:53.522Z,2.70
2023-01-30T15:49:20.199Z,2.70
2023-01-30T15:51:47.058Z,2.70
2023-01-30T15:54:18.399Z,2.50
2023-01-30T15:56:48.669Z,2.70
2023-01-30T15:59:38.035Z,2.70
2023-01-30T16:02:13.012Z,2.60
2023-01-30T16:04:39.942Z,2.70
2023-01-30T16:07:26.645Z,2.70
2023-01-30T16:10:06.887Z,2.60
2023-01-30T16:12:34.332Z,2.60
2023-01-30T16:15:29.984Z,2.60
2023-01-30T16:17:54.247Z,2.60
2023-01-30T16:20:21.135Z,2.60
2023-01-30T16:22:48.160Z,2.70
2023-01-30T16:25:30.767Z,2.70
2023-01-30T16:27:58.567Z,2.60
2023-01-30T16:30:26.804Z,2.70
2023-01-30T16:32:54.520Z,2.70
2023-01-30T16:35:27.177Z,2.70
2023-01-30T16:37:56.090Z,2.70
2023-01-30T16:40:24.010Z,2.70
2023-01-30T16:43:14.859Z,2.70
2023-01-30T16:45:54.127Z,2.60
2023-01-30T16:48:24.283Z,2.60
2023-01-30T16:50:58.532Z,2.50
2023-01-30T16:53:26.590Z,2.60
2023-01-30T16:56:00.557Z,2.60
2023-01-30T16:58:32.459Z,2.60
2023-01-30T17:01:00.993Z,2.70
2023-01-30T17:03:34.130Z,2.70
2023-01-30T17:06:01.951Z,2.70
2023-01-30T17:08:31.753Z,2.70
2023-01-30T17:10:59.439Z,2.80
2023-01-30T17:13:41.551Z,2.80
2023-01-30T17:16:28.041Z,2.70
2023-01-30T17:18:56.170Z,2.70
2023-01-30T17:21:24.222Z,2.70
2023-01-30T17:23:56.217Z,2.70
2023-01-30T17:26:23.026Z,2.70
2023-01-30T17:28:49.766Z,2.60
2023-01-30T17:31:17.355Z,2.70
2023-01-30T17:33:44.241Z,2.70
2023-01-30T17:36:24.092Z,2.80
2023-01-30T17:38:51.370Z,2.80
2023-01-30T17:41:22.566Z,2.70
2023-01-30T17:43:49.899Z,2.70
2023-01-30T17:46:17.911Z,2.70
2023-01-30T17:48:44.969Z,2.70
2023-01-30T17:51:14.270Z,2.70
2023-01-30T17:53:41.767Z,2.80
2023-01-30T17:56:15.526Z,2.70
2023-01-30T17:58:42.388Z,2.70
2023-01-30T18:01:09.111Z,2.80
2023-01-30T18:03:35.896Z,2.70
2023-01-30T18:06:02.632Z,2.70
2023-01-30T18:08:29.418Z,2.80
2023-01-30T18:10:56.103Z,2.80
2023-01-30T18:13:22.908Z,2.90
2023-01-30T18:15:49.833Z,2.90
2023-01-30T18:18:17.308Z,2.90
2023-01-30T18:20:44.013Z,2.90
2023-01-30T18:23:10.775Z,3.00
2023-01-30T18:25:37.465Z,2.90
2023-01-30T18:28:06.811Z,2.90
2023-01-30T18:30:33.569Z,3.00
2023-01-30T18:33:00.341Z,2.90
2023-01-30T18:35:27.122Z,3.00
2023-01-30T18:37:55.270Z,2.90
2023-01-30T18:40:24.184Z,3.00
2023-01-30T18:42:51.093Z,3.00
2023-01-30T18:45:17.818Z,3.00
2023-01-30T18:47:44.636Z,2.90
2023-01-30T18:50:11.417Z,2.90
2023-01-30T18:52:38.156Z,2.90
2023-01-30T18:55:05.153Z,3.00
2023-01-30T18:57:31.927Z,3.00
2023-01-30T18:59:58.686Z,3.00
2023-01-30T19:02:25.461Z,3.00
2023-01-30T19:04:52.186Z,3.00
2023-01-30T19:07:19.169Z,2.90
2023-01-30T19:09:45.955Z,3.00
2023-01-30T19:12:31.293Z,3.00
2023-01-30T19:14:58.098Z,3.00
2023-01-30T19:17:24.877Z,3.00
2023-01-30T19:19:51.631Z,3.00
2023-01-30T19:22:18.454Z,3.00
2023-01-30T19:24:45.392Z,2.90
2023-01-30T19:27:13.888Z,3.00
2023-01-30T19:29:43.907Z,3.00
2023-01-30T19:32:10.690Z,3.00
2023-01-30T19:34:38.440Z,2.90
2023-01-30T19:37:05.309Z,2.90
2023-01-30T19:39:32.001Z,3.00
2023-01-30T19:41:58.806Z,3.00
2023-01-30T19:44:25.737Z,3.00
2023-01-30T19:46:52.476Z,3.00
2023-01-30T19:49:19.287Z,3.00
2023-01-30T19:51:46.076Z,3.00
2023-01-30T19:54:12.904Z,3.00
2023-01-30T19:56:41.909Z,3.00
2023-01-30T19:59:09.389Z,3.00
2023-01-30T20:01:39.889Z,3.10
2023-01-30T20:04:06.899Z,3.10
2023-01-30T20:06:34.152Z,3.00
2023-01-30T20:09:05.830Z,3.10
2023-01-30T20:11:36.484Z,3.10
2023-01-30T20:14:05.341Z,3.00
2023-01-30T20:16:32.790Z,3.10
2023-01-30T20:19:00.739Z,3.10
2023-01-30T20:21:27.951Z,3.20
2023-01-30T20:23:55.095Z,3.30
2023-01-30T20:26:26.210Z,3.20
2023-01-30T20:28:56.729Z,3.20
2023-01-30T20:31:24.744Z,3.20
2023-01-30T20:33:51.935Z,3.20
2023-01-30T20:36:19.799Z,3.20
2023-01-30T20:38:47.252Z,3.20
2023-01-30T20:41:16.198Z,3.20
2023-01-30T20:43:45.108Z,3.20
2023-01-30T20:46:16.190Z,3.20
2023-01-30T20:48:43.415Z,3.20
2023-01-30T20:51:12.200Z,3.10
2023-01-30T20:53:39.873Z,3.10
2023-01-30T20:56:06.933Z,3.00
2023-01-30T20:58:33.778Z,3.10
2023-01-30T21:01:18.234Z,3.10
2023-01-30T21:03:46.313Z,3.20
2023-01-30T21:06:13.111Z,3.10
2023-01-30T21:08:40.403Z,3.10
2023-01-30T21:11:08.469Z,3.20
2023-01-30T21:13:35.765Z,3.10
2023-01-30T21:16:02.537Z,3.20
2023-01-30T21:18:30.767Z,3.10
2023-01-30T21:20:57.530Z,3.20
2023-01-30T21:23:24.437Z,3.30
2023-01-30T21:25:51.371Z,3.20
2023-01-30T21:28:18.109Z,3.20
2023-01-30T21:30:44.989Z,3.20
2023-01-30T21:33:11.753Z,3.20
2023-01-30T21:35:39.163Z,3.20
2023-01-30T21:38:24.642Z,3.10
2023-01-30T21:41:10.847Z,3.10
2023-01-30T21:43:37.786Z,3.20
2023-01-30T21:46:04.754Z,3.20
2023-01-30T21:48:31.728Z,3.20
2023-01-30T21:50:58.738Z,3.10
2023-01-30T21:53:26.407Z,3.00
2023-01-30T21:55:53.244Z,3.20
2023-01-30T21:58:20.032Z,3.20
2023-01-30T22:00:46.725Z,3.20
2023-01-30T22:03:13.608Z,3.20
2023-01-30T22:05:43.453Z,3.20
2023-01-30T22:08:10.127Z,3.10
2023-01-30T22:10:36.810Z,3.10
2023-01-30T22:13:03.531Z,3.10
2023-01-30T22:15:30.279Z,3.00
2023-01-30T22:17:57.010Z,3.00
2023-01-30T22:20:23.733Z,2.90
2023-01-30T22:22:50.426Z,2.80
2023-01-30T22:25:17.349Z,2.80
2023-01-30T22:27:44.191Z,2.80
2023-01-30T22:30:11.262Z,2.70
2023-01-30T22:32:38.424Z,2.70
2023-01-30T22:35:05.434Z,2.70
2023-01-30T22:37:32.615Z,2.70
2023-01-30T22:39:59.333Z,2.60
2023-01-30T22:42:26.072Z,2.70
2023-01-30T22:44:52.839Z,2.70
2023-01-30T22:47:19.682Z,2.60
2023-01-30T22:49:46.849Z,2.60
2023-01-30T22:52:13.556Z,2.60
2023-01-30T22:54:40.642Z,2.70
2023-01-30T22:57:07.369Z,2.60
2023-01-30T22:59:34.125Z,2.60
2023-01-30T23:02:00.974Z,2.50
2023-01-30T23:04:27.820Z,2.50
2023-01-30T23:06:54.535Z,2.50
2023-01-30T23:09:22.376Z,2.50
2023-01-30T23:12:10.461Z,2.50
2023-01-30T23:14:38.213Z,2.60
2023-01-30T23:17:25.473Z,2.60
2023-01-30T23:19:52.543Z,2.70
2023-01-30T23:22:19.237Z,2.80
2023-01-30T23:24:46.027Z,2.70
2023-01-30T23:27:12.805Z,2.80
2023-01-30T23:29:40.111Z,2.70
2023-01-30T23:32:06.972Z,2.70
2023-01-30T23:34:33.766Z,2.90
2023-01-30T23:37:00.449Z,2.80
2023-01-30T23:39:27.268Z,2.80
2023-01-30T23:41:54.174Z,2.90
2023-01-30T23:44:20.920Z,2.90
2023-01-30T23:46:47.707Z,2.90
2023-01-30T23:49:14.728Z,2.90
2023-01-30T23:51:44.233Z,2.90
2023-01-30T23:54:12.266Z,2.80
2023-01-30T23:56:40.602Z,2.80
2023-01-30T23:59:07.629Z,2.70
